sensor_id;sensor_type;location;lat;lon;timestamp;pressure;altitude;pressure_sealevel;temperature;humidity
29169;BME280;16219;42.864;23.360;2022-11-15T00:01:31;96459.34;;;4.22;100.00
29169;BME280;16219;42.864;23.360;2022-11-15T00:04:17;96462.75;;;4.28;100.00
29169;BME280;16219;42.864;23.360;2022-11-15T00:07:04;96452.91;;;4.40;100.00
29169;BME280;16219;42.864;23.360;2022-11-15T00:09:49;96463.41;;;4.50;100.00
29169;BME280;16219;42.864;23.360;2022-11-15T00:12:36;96450.88;;;4.58;100.00
29169;BME280;16219;42.864;23.360;2022-11-15T00:15:21;96450.94;;;4.68;100.00
29169;BME280;16219;42.864;23.360;2022-11-15T00:18:14;96454.84;;;4.70;100.00
29169;BME280;16219;42.864;23.360;2022-11-15T00:21:03;96451.44;;;4.65;100.00
29169;BME280;16219;42.864;23.360;2022-11-15T00:23:51;96459.75;;;4.57;100.00
29169;BME280;16219;42.864;23.360;2022-11-15T00:26:36;96461.03;;;4.49;100.00
29169;BME280;16219;42.864;23.360;2022-11-15T00:29:22;96458.69;;;4.47;100.00
29169;BME280;16219;42.864;23.360;2022-11-15T00:32:08;96453.50;;;4.58;100.00
29169;BME280;16219;42.864;23.360;2022-11-15T00:34:54;96450.38;;;4.61;100.00
29169;BME280;16219;42.864;23.360;2022-11-15T00:37:40;96451.91;;;4.51;100.00
29169;BME280;16219;42.864;23.360;2022-11-15T00:40:27;96440.09;;;4.39;100.00
29169;BME280;16219;42.864;23.360;2022-11-15T00:43:12;96443.69;;;4.28;100.00
29169;BME280;16219;42.864;23.360;2022-11-15T00:45:58;96440.31;;;4.32;100.00
29169;BME280;16219;42.864;23.360;2022-11-15T00:48:44;96438.47;;;4.28;100.00
29169;BME280;16219;42.864;23.360;2022-11-15T00:51:30;96445.78;;;4.25;100.00
29169;BME280;16219;42.864;23.360;2022-11-15T00:54:15;96440.56;;;4.25;100.00
29169;BME280;16219;42.864;23.360;2022-11-15T00:57:02;96440.03;;;4.29;100.00
29169;BME280;16219;42.864;23.360;2022-11-15T00:59:48;96438.97;;;4.24;100.00
29169;BME280;16219;42.864;23.360;2022-11-15T01:02:34;96434.78;;;4.23;100.00
29169;BME280;16219;42.864;23.360;2022-11-15T01:05:20;96435.84;;;4.28;100.00
29169;BME280;16219;42.864;23.360;2022-11-15T01:08:06;96437.41;;;4.23;100.00
29169;BME280;16219;42.864;23.360;2022-11-15T01:10:51;96437.47;;;4.34;100.00
29169;BME280;16219;42.864;23.360;2022-11-15T01:13:39;96426.28;;;4.48;100.00
29169;BME280;16219;42.864;23.360;2022-11-15T01:16:25;96419.78;;;4.56;100.00
29169;BME280;16219;42.864;23.360;2022-11-15T01:19:10;96420.31;;;4.58;100.00
29169;BME280;16219;42.864;23.360;2022-11-15T01:21:56;96415.88;;;4.59;100.00
29169;BME280;16219;42.864;23.360;2022-11-15T01:24:42;96425.03;;;4.66;100.00
29169;BME280;16219;42.864;23.360;2022-11-15T01:27:28;96421.41;;;4.67;100.00
29169;BME280;16219;42.864;23.360;2022-11-15T01:30:17;96429.47;;;4.61;100.00
29169;BME280;16219;42.864;23.360;2022-11-15T01:33:03;96435.97;;;4.58;100.00
29169;BME280;16219;42.864;23.360;2022-11-15T01:35:49;96438.38;;;4.60;100.00
29169;BME280;16219;42.864;23.360;2022-11-15T01:38:35;96439.13;;;4.55;100.00
29169;BME280;16219;42.864;23.360;2022-11-15T01:41:23;96435.44;;;4.51;100.00
29169;BME280;16219;42.864;23.360;2022-11-15T01:47:35;96437.50;;;4.39;100.00
29169;BME280;16219;42.864;23.360;2022-11-15T01:50:25;96424.16;;;4.35;100.00
29169;BME280;16219;42.864;23.360;2022-11-15T01:53:14;96428.50;;;4.24;100.00
29169;BME280;16219;42.864;23.360;2022-11-15T01:56:02;96425.09;;;4.19;100.00
29169;BME280;16219;42.864;23.360;2022-11-15T01:58:50;96429.03;;;4.21;100.00
29169;BME280;16219;42.864;23.360;2022-11-15T02:01:37;96425.13;;;4.24;100.00
29169;BME280;16219;42.864;23.360;2022-11-15T02:04:26;96423.03;;;4.21;100.00
29169;BME280;16219;42.864;23.360;2022-11-15T02:07:15;96428.78;;;4.23;100.00
29169;BME280;16219;42.864;23.360;2022-11-15T02:10:07;96425.66;;;4.26;100.00
29169;BME280;16219;42.864;23.360;2022-11-15T02:12:54;96424.03;;;4.15;100.00
29169;BME280;16219;42.864;23.360;2022-11-15T02:15:47;96425.66;;;4.21;100.00
29169;BME280;16219;42.864;23.360;2022-11-15T02:18:38;96424.03;;;4.15;100.00
29169;BME280;16219;42.864;23.360;2022-11-15T02:21:32;96421.91;;;4.07;100.00
29169;BME280;16219;42.864;23.360;2022-11-15T02:24:55;96418.00;;;4.09;100.00
29169;BME280;16219;42.864;23.360;2022-11-15T02:28:20;96415.41;;;4.09;100.00
29169;BME280;16219;42.864;23.360;2022-11-15T02:31:20;96425.50;;;3.95;100.00
29169;BME280;16219;42.864;23.360;2022-11-15T02:34:17;96416.53;;;3.81;100.00
29169;BME280;16219;42.864;23.360;2022-11-15T02:37:11;96418.66;;;3.89;100.00
29169;BME280;16219;42.864;23.360;2022-11-15T02:40:07;96415.25;;;3.84;100.00
29169;BME280;16219;42.864;23.360;2022-11-15T02:43:01;96420.00;;;3.92;100.00
29169;BME280;16219;42.864;23.360;2022-11-15T02:46:12;96416.59;;;3.91;100.00
29169;BME280;16219;42.864;23.360;2022-11-15T02:49:01;96417.09;;;3.88;100.00
29169;BME280;16219;42.864;23.360;2022-11-15T02:51:47;96421.56;;;3.93;100.00
29169;BME280;16219;42.864;23.360;2022-11-15T02:54:35;96418.16;;;3.92;100.00
29169;BME280;16219;42.864;23.360;2022-11-15T02:57:29;96420.28;;;3.95;100.00
29169;BME280;16219;42.864;23.360;2022-11-15T03:00:17;96416.09;;;3.94;100.00
29169;BME280;16219;42.864;23.360;2022-11-15T03:03:22;96414.03;;;4.01;100.00
29169;BME280;16219;42.864;23.360;2022-11-15T03:06:22;96416.94;;;4.05;100.00
29169;BME280;16219;42.864;23.360;2022-11-15T03:09:17;96421.91;;;4.07;100.00
29169;BME280;16219;42.864;23.360;2022-11-15T03:12:12;96418.78;;;4.05;100.00
29169;BME280;16219;42.864;23.360;2022-11-15T03:15:03;96417.19;;;4.04;100.00
29169;BME280;16219;42.864;23.360;2022-11-15T03:17:55;96411.38;;;3.91;100.00
29169;BME280;16219;42.864;23.360;2022-11-15T03:20:44;96412.41;;;3.90;100.00
29169;BME280;16219;42.864;23.360;2022-11-15T03:23:32;96402.50;;;3.87;100.00
29169;BME280;16219;42.864;23.360;2022-11-15T03:26:20;96402.44;;;3.82;100.00
29169;BME280;16219;42.864;23.360;2022-11-15T03:29:11;96401.19;;;3.90;100.00
29169;BME280;16219;42.864;23.360;2022-11-15T03:32:02;96402.97;;;3.84;100.00
29169;BME280;16219;42.864;23.360;2022-11-15T03:34:51;96405.56;;;3.79;100.00
29169;BME280;16219;42.864;23.360;2022-11-15T03:37:45;96393.78;;;3.76;100.00
29169;BME280;16219;42.864;23.360;2022-11-15T03:40:38;96383.34;;;3.76;100.00
29169;BME280;16219;42.864;23.360;2022-11-15T03:43:30;96385.19;;;3.76;100.00
29169;BME280;16219;42.864;23.360;2022-11-15T03:46:24;96387.81;;;3.81;100.00
29169;BME280;16219;42.864;23.360;2022-11-15T03:49:16;96386.50;;;3.79;100.00
29169;BME280;16219;42.864;23.360;2022-11-15T03:52:05;96378.63;;;3.73;100.00
29169;BME280;16219;42.864;23.360;2022-11-15T03:54:53;96377.94;;;3.83;100.00
29169;BME280;16219;42.864;23.360;2022-11-15T03:57:41;96386.81;;;3.87;100.00
29169;BME280;16219;42.864;23.360;2022-11-15T04:00:27;96378.72;;;3.89;100.00
29169;BME280;16219;42.864;23.360;2022-11-15T04:03:12;96377.97;;;3.93;100.00
29169;BME280;16219;42.864;23.360;2022-11-15T04:05:58;96374.88;;;3.96;100.00
29169;BME280;16219;42.864;23.360;2022-11-15T04:08:44;96387.41;;;3.99;100.00
29169;BME280;16219;42.864;23.360;2022-11-15T04:11:30;96382.69;;;3.91;100.00
29169;BME280;16219;42.864;23.360;2022-11-15T04:14:17;96381.09;;;3.90;100.00
29169;BME280;16219;42.864;23.360;2022-11-15T04:17:02;96379.00;;;3.87;100.00
29169;BME280;16219;42.864;23.360;2022-11-15T04:19:48;96378.22;;;3.87;100.00
29169;BME280;16219;42.864;23.360;2022-11-15T04:22:52;96373.25;;;3.90;100.00
29169;BME280;16219;42.864;23.360;2022-11-15T04:25:58;96371.44;;;3.91;100.00
29169;BME280;16219;42.864;23.360;2022-11-15T04:28:44;96368.09;;;3.95;100.00
29169;BME280;16219;42.864;23.360;2022-11-15T04:31:45;96371.47;;;3.96;100.00
29169;BME280;16219;42.864;23.360;2022-11-15T04:34:30;96359.19;;;3.96;100.00
29169;BME280;16219;42.864;23.360;2022-11-15T04:37:16;96362.59;;;3.97;100.00
29169;BME280;16219;42.864;23.360;2022-11-15T04:40:02;96366.00;;;3.97;100.00
29169;BME280;16219;42.864;23.360;2022-11-15T04:42:47;96366.28;;;4.01;100.00
29169;BME280;16219;42.864;23.360;2022-11-15T04:45:33;96367.50;;;3.88;100.00
29169;BME280;16219;42.864;23.360;2022-11-15T04:48:20;96370.16;;;3.93;100.00
29169;BME280;16219;42.864;23.360;2022-11-15T04:51:06;96352.91;;;3.92;100.00
29169;BME280;16219;42.864;23.360;2022-11-15T04:53:52;96373.81;;;3.97;100.00
29169;BME280;16219;42.864;23.360;2022-11-15T04:56:37;96368.56;;;3.92;100.00
29169;BME280;16219;42.864;23.360;2022-11-15T04:59:23;96369.56;;;3.86;100.00
29169;BME280;16219;42.864;23.360;2022-11-15T05:02:08;96365.69;;;3.94;100.00
29169;BME280;16219;42.864;23.360;2022-11-15T05:04:56;96360.25;;;3.95;100.00
29169;BME280;16219;42.864;23.360;2022-11-15T05:07:40;96375.94;;;4.00;100.00
29169;BME280;16219;42.864;23.360;2022-11-15T05:10:26;96378.00;;;3.98;100.00
29169;BME280;16219;42.864;23.360;2022-11-15T05:13:12;96378.00;;;3.98;100.00
29169;BME280;16219;42.864;23.360;2022-11-15T05:15:58;96381.66;;;3.97;100.00
29169;BME280;16219;42.864;23.360;2022-11-15T05:18:44;96376.94;;;3.94;100.00
29169;BME280;16219;42.864;23.360;2022-11-15T05:21:31;96380.56;;;3.88;100.00
29169;BME280;16219;42.864;23.360;2022-11-15T05:24:17;96380.00;;;3.81;100.00
29169;BME280;16219;42.864;23.360;2022-11-15T05:27:03;96362.94;;;3.68;100.00
29169;BME280;16219;42.864;23.360;2022-11-15T05:29:49;96367.19;;;3.74;100.00
29169;BME280;16219;42.864;23.360;2022-11-15T05:32:35;96370.53;;;3.70;100.00
29169;BME280;16219;42.864;23.360;2022-11-15T05:35:28;96364.28;;;3.71;100.00
29169;BME280;16219;42.864;23.360;2022-11-15T05:38:17;96364.31;;;3.76;100.00
29169;BME280;16219;42.864;23.360;2022-11-15T05:41:03;96360.38;;;3.73;100.00
29169;BME280;16219;42.864;23.360;2022-11-15T05:43:50;96354.41;;;3.78;100.00
29169;BME280;16219;42.864;23.360;2022-11-15T05:46:38;96355.72;;;3.81;100.00
29169;BME280;16219;42.864;23.360;2022-11-15T05:49:30;96367.47;;;3.78;100.00
29169;BME280;16219;42.864;23.360;2022-11-15T05:52:18;96365.88;;;3.77;100.00
29169;BME280;16219;42.864;23.360;2022-11-15T05:55:08;96369.72;;;3.69;100.00
29169;BME280;16219;42.864;23.360;2022-11-15T05:57:54;96364.31;;;3.76;100.00
29169;BME280;16219;42.864;23.360;2022-11-15T06:00:40;96366.91;;;3.71;100.00
29169;BME280;16219;42.864;23.360;2022-11-15T06:03:27;96366.28;;;3.59;100.00
29169;BME280;16219;42.864;23.360;2022-11-15T06:06:13;96362.09;;;3.53;100.00
29169;BME280;16219;42.864;23.360;2022-11-15T06:08:59;96368.59;;;3.55;100.00
29169;BME280;16219;42.864;23.360;2022-11-15T06:11:46;96372.25;;;3.54;100.00
29169;BME280;16219;42.864;23.360;2022-11-15T06:14:32;96369.34;;;3.50;100.00
29169;BME280;16219;42.864;23.360;2022-11-15T06:17:17;96373.75;;;3.45;100.00
29169;BME280;16219;42.864;23.360;2022-11-15T06:20:04;96372.53;;;3.53;100.00
29169;BME280;16219;42.864;23.360;2022-11-15T06:22:49;96365.72;;;3.51;100.00
29169;BME280;16219;42.864;23.360;2022-11-15T06:25:35;96365.25;;;3.60;100.00
29169;BME280;16219;42.864;23.360;2022-11-15T06:28:22;96374.94;;;3.69;100.00
29169;BME280;16219;42.864;23.360;2022-11-15T06:31:09;96374.25;;;3.79;100.00
29169;BME280;16219;42.864;23.360;2022-11-15T06:33:56;96369.84;;;3.85;100.00
29169;BME280;16219;42.864;23.360;2022-11-15T06:36:42;96370.63;;;3.85;100.00
29169;BME280;16219;42.864;23.360;2022-11-15T06:39:27;96366.47;;;3.94;100.00
29169;BME280;16219;42.864;23.360;2022-11-15T06:42:13;96368.34;;;3.99;100.00
29169;BME280;16219;42.864;23.360;2022-11-15T06:45:00;96363.41;;;4.03;100.00
29169;BME280;16219;42.864;23.360;2022-11-15T06:47:46;96369.19;;;4.15;100.00
29169;BME280;16219;42.864;23.360;2022-11-15T06:50:32;96372.88;;;4.24;100.00
29169;BME280;16219;42.864;23.360;2022-11-15T06:53:17;96363.75;;;4.16;100.00
29169;BME280;16219;42.864;23.360;2022-11-15T06:56:05;96367.16;;;4.27;100.00
29169;BME280;16219;42.864;23.360;2022-11-15T06:58:51;96366.91;;;4.29;100.00
29169;BME280;16219;42.864;23.360;2022-11-15T07:01:38;96368.75;;;4.33;100.00
29169;BME280;16219;42.864;23.360;2022-11-15T07:04:23;96365.13;;;4.39;100.00
29169;BME280;16219;42.864;23.360;2022-11-15T07:07:09;96356.53;;;4.49;100.00
29169;BME280;16219;42.864;23.360;2022-11-15T07:09:55;96358.38;;;4.54;100.00
29169;BME280;16219;42.864;23.360;2022-11-15T07:12:40;96351.34;;;4.64;100.00
29169;BME280;16219;42.864;23.360;2022-11-15T07:15:26;96345.56;;;4.57;100.00
29169;BME280;16219;42.864;23.360;2022-11-15T07:18:13;96343.00;;;4.67;100.00
29169;BME280;16219;42.864;23.360;2022-11-15T07:21:01;96343.25;;;4.71;100.00
29169;BME280;16219;42.864;23.360;2022-11-15T07:23:47;96349.56;;;4.80;100.00
29169;BME280;16219;42.864;23.360;2022-11-15T07:26:33;96346.41;;;4.83;100.00
29169;BME280;16219;42.864;23.360;2022-11-15T07:29:18;96346.94;;;4.90;100.00
29169;BME280;16219;42.864;23.360;2022-11-15T07:32:04;96345.91;;;4.96;100.00
29169;BME280;16219;42.864;23.360;2022-11-15T07:34:52;96341.47;;;5.02;100.00
29169;BME280;16219;42.864;23.360;2022-11-15T07:37:37;96342.00;;;5.14;100.00
29169;BME280;16219;42.864;23.360;2022-11-15T07:40:24;96341.72;;;5.21;100.00
29169;BME280;16219;42.864;23.360;2022-11-15T07:43:09;96342.78;;;5.25;100.00
29169;BME280;16219;42.864;23.360;2022-11-15T07:45:56;96342.78;;;5.35;100.00
29169;BME280;16219;42.864;23.360;2022-11-15T07:48:41;96340.69;;;5.42;100.00
29169;BME280;16219;42.864;23.360;2022-11-15T07:51:28;96337.00;;;5.38;100.00
29169;BME280;16219;42.864;23.360;2022-11-15T07:54:14;96347.47;;;5.38;100.00
29169;BME280;16219;42.864;23.360;2022-11-15T07:56:59;96342.25;;;5.38;100.00
29169;BME280;16219;42.864;23.360;2022-11-15T07:59:45;96344.34;;;5.46;100.00
29169;BME280;16219;42.864;23.360;2022-11-15T08:02:31;96336.25;;;5.48;100.00
29169;BME280;16219;42.864;23.360;2022-11-15T08:05:16;96338.06;;;5.58;100.00
29169;BME280;16219;42.864;23.360;2022-11-15T08:08:06;96334.91;;;5.61;100.00
29169;BME280;16219;42.864;23.360;2022-11-15T08:10:52;96341.16;;;5.70;100.00
29169;BME280;16219;42.864;23.360;2022-11-15T08:13:38;96330.69;;;5.70;100.00
29169;BME280;16219;42.864;23.360;2022-11-15T08:16:23;96328.59;;;5.72;100.00
29169;BME280;16219;42.864;23.360;2022-11-15T08:19:09;96329.66;;;5.71;100.00
29169;BME280;16219;42.864;23.360;2022-11-15T08:21:55;96327.53;;;5.73;100.00
29169;BME280;16219;42.864;23.360;2022-11-15T08:24:43;96329.91;;;5.74;100.00
29169;BME280;16219;42.864;23.360;2022-11-15T08:27:29;96329.13;;;5.74;100.00
29169;BME280;16219;42.864;23.360;2022-11-15T08:30:15;96326.25;;;5.55;100.00
29169;BME280;16219;42.864;23.360;2022-11-15T08:33:01;96323.13;;;5.63;100.00
29169;BME280;16219;42.864;23.360;2022-11-15T08:35:47;96329.13;;;5.74;100.00
29169;BME280;16219;42.864;23.360;2022-11-15T08:38:33;96322.53;;;5.82;100.00
29169;BME280;16219;42.864;23.360;2022-11-15T08:41:25;96319.66;;;5.93;100.00
29169;BME280;16219;42.864;23.360;2022-11-15T08:44:11;96317.81;;;5.94;100.00
29169;BME280;16219;42.864;23.360;2022-11-15T08:46:56;96320.66;;;6.03;100.00
29169;BME280;16219;42.864;23.360;2022-11-15T08:49:42;96307.03;;;6.11;100.00
29169;BME280;16219;42.864;23.360;2022-11-15T08:52:28;96299.38;;;6.24;100.00
29169;BME280;16219;42.864;23.360;2022-11-15T08:55:13;96299.59;;;6.33;100.00
29169;BME280;16219;42.864;23.360;2022-11-15T08:58:01;96299.00;;;6.41;100.00
29169;BME280;16219;42.864;23.360;2022-11-15T09:00:46;96293.38;;;6.19;100.00
29169;BME280;16219;42.864;23.360;2022-11-15T09:03:32;96290.81;;;6.09;100.00
29169;BME280;16219;42.864;23.360;2022-11-15T09:06:18;96282.72;;;6.00;100.00
29169;BME280;16219;42.864;23.360;2022-11-15T09:09:04;96281.91;;;6.05;100.00
29169;BME280;16219;42.864;23.360;2022-11-15T09:11:49;96284.16;;;6.26;100.00
29169;BME280;16219;42.864;23.360;2022-11-15T09:14:37;96272.78;;;6.46;100.00
29169;BME280;16219;42.864;23.360;2022-11-15T09:17:23;96272.44;;;6.63;100.00
29169;BME280;16219;42.864;23.360;2022-11-15T09:20:09;96271.84;;;6.71;100.00
29169;BME280;16219;42.864;23.360;2022-11-15T09:22:59;96264.91;;;6.86;100.00
29169;BME280;16219;42.864;23.360;2022-11-15T09:25:45;96256.13;;;7.00;100.00
29169;BME280;16219;42.864;23.360;2022-11-15T09:28:31;96255.28;;;7.10;100.00
29169;BME280;16219;42.864;23.360;2022-11-15T09:31:18;96260.13;;;7.22;100.00
29169;BME280;16219;42.864;23.360;2022-11-15T09:34:03;96255.91;;;7.26;100.00
29169;BME280;16219;42.864;23.360;2022-11-15T09:36:49;96249.63;;;7.22;100.00
29169;BME280;16219;42.864;23.360;2022-11-15T09:39:35;96253.31;;;7.21;100.00
29169;BME280;16219;42.864;23.360;2022-11-15T09:42:29;96245.16;;;7.28;100.00
29169;BME280;16219;42.864;23.360;2022-11-15T09:45:23;96240.72;;;7.23;100.00
29169;BME280;16219;42.864;23.360;2022-11-15T09:48:46;96235.53;;;7.18;100.00
29169;BME280;16219;42.864;23.360;2022-11-15T09:51:33;96228.81;;;7.07;100.00
29169;BME280;16219;42.864;23.360;2022-11-15T09:54:05;96228.88;;;6.96;100.00
29169;BME280;16219;42.864;23.360;2022-11-15T09:56:38;96227.09;;;6.92;100.00
29169;BME280;16219;42.864;23.360;2022-11-15T10:02:13;96218.31;;;7.07;100.00
29169;BME280;16219;42.864;23.360;2022-11-15T10:04:44;96220.09;;;7.11;100.00
29169;BME280;16219;42.864;23.360;2022-11-15T10:07:14;96213.53;;;7.14;100.00
29169;BME280;16219;42.864;23.360;2022-11-15T10:09:47;96210.03;;;7.23;100.00
29169;BME280;16219;42.864;23.360;2022-11-15T10:12:17;96214.66;;;7.32;100.00
29169;BME280;16219;42.864;23.360;2022-11-15T10:14:45;96206.00;;;7.31;100.00
29169;BME280;16219;42.864;23.360;2022-11-15T10:17:26;96200.34;;;7.43;100.00
29169;BME280;16219;42.864;23.360;2022-11-15T10:20:10;96206.97;;;7.40;100.00
29169;BME280;16219;42.864;23.360;2022-11-15T10:22:40;96201.31;;;7.52;100.00
29169;BME280;16219;42.864;23.360;2022-11-15T10:25:16;96208.84;;;7.59;100.00
29169;BME280;16219;42.864;23.360;2022-11-15T10:27:52;96204.59;;;7.63;100.00
29169;BME280;16219;42.864;23.360;2022-11-15T10:30:19;96201.66;;;7.69;100.00
29169;BME280;16219;42.864;23.360;2022-11-15T10:32:48;96197.66;;;7.72;100.00
29169;BME280;16219;42.864;23.360;2022-11-15T10:35:20;96194.19;;;7.76;100.00
29169;BME280;16219;42.864;23.360;2022-11-15T10:37:48;96189.78;;;7.72;100.00
29169;BME280;16219;42.864;23.360;2022-11-15T10:40:19;96180.50;;;7.80;100.00
29169;BME280;16219;42.864;23.360;2022-11-15T10:42:46;96176.53;;;7.82;100.00
29169;BME280;16219;42.864;23.360;2022-11-15T10:45:32;96171.56;;;7.99;100.00
29169;BME280;16219;42.864;23.360;2022-11-15T10:48:24;96175.69;;;8.06;100.00
29169;BME280;16219;42.864;23.360;2022-11-15T10:50:54;96165.19;;;8.06;100.00
29169;BME280;16219;42.864;23.360;2022-11-15T10:53:25;96157.22;;;8.11;100.00
29169;BME280;16219;42.864;23.360;2022-11-15T10:55:56;96149.63;;;8.09;100.00
29169;BME280;16219;42.864;23.360;2022-11-15T10:58:32;96146.22;;;8.09;100.00
29169;BME280;16219;42.864;23.360;2022-11-15T11:01:15;96138.47;;;7.98;100.00
29169;BME280;16219;42.864;23.360;2022-11-15T11:03:44;96135.84;;;7.98;100.00
29169;BME280;16219;42.864;23.360;2022-11-15T11:06:15;96129.94;;;8.07;100.00
29169;BME280;16219;42.864;23.360;2022-11-15T11:08:57;96130.22;;;8.24;100.00
29169;BME280;16219;42.864;23.360;2022-11-15T11:11:25;96124.03;;;8.15;100.00
29169;BME280;16219;42.864;23.360;2022-11-15T11:14:11;96120.22;;;8.26;100.00
29169;BME280;16219;42.864;23.360;2022-11-15T11:16:43;96128.88;;;8.26;100.00
29169;BME280;16219;42.864;23.360;2022-11-15T11:19:36;96110.56;;;8.21;100.00
29169;BME280;16219;42.864;23.360;2022-11-15T11:22:13;96114.44;;;8.24;100.00
29169;BME280;16219;42.864;23.360;2022-11-15T11:24:45;96111.75;;;8.29;100.00
29169;BME280;16219;42.864;23.360;2022-11-15T11:27:26;96103.94;;;8.24;100.00
29169;BME280;16219;42.864;23.360;2022-11-15T11:30:06;96094.28;;;8.38;100.00
29169;BME280;16219;42.864;23.360;2022-11-15T11:32:48;96096.81;;;8.43;100.00
29169;BME280;16219;42.864;23.360;2022-11-15T11:35:20;96095.81;;;8.58;100.00
29169;BME280;16219;42.864;23.360;2022-11-15T11:37:53;96081.38;;;8.56;100.00
29169;BME280;16219;42.864;23.360;2022-11-15T11:40:29;96072.00;;;8.49;100.00
29169;BME280;16219;42.864;23.360;2022-11-15T11:43:03;96077.19;;;8.55;100.00
29169;BME280;16219;42.864;23.360;2022-11-15T11:45:52;96075.22;;;8.46;100.00
29169;BME280;16219;42.864;23.360;2022-11-15T11:48:40;96065.09;;;8.54;100.00
29169;BME280;16219;42.864;23.360;2022-11-15T11:51:18;96064.72;;;8.46;100.00
29169;BME280;16219;42.864;23.360;2022-11-15T11:53:52;96059.53;;;8.41;100.00
29169;BME280;16219;42.864;23.360;2022-11-15T11:56:25;96046.41;;;8.55;100.00
29169;BME280;16219;42.864;23.360;2022-11-15T11:58:55;96049.31;;;8.54;100.00
29169;BME280;16219;42.864;23.360;2022-11-15T12:01:25;96044.06;;;8.54;100.00
29169;BME280;16219;42.864;23.360;2022-11-15T12:04:03;96037.94;;;8.72;100.00
29169;BME280;16219;42.864;23.360;2022-11-15T12:06:38;96034.66;;;8.80;100.00
29169;BME280;16219;42.864;23.360;2022-11-15T12:09:14;96022.16;;;8.72;100.00
29169;BME280;16219;42.864;23.360;2022-11-15T12:11:50;96020.63;;;8.71;100.00
29169;BME280;16219;42.864;23.360;2022-11-15T12:14:29;96013.31;;;8.68;100.00
29169;BME280;16219;42.864;23.360;2022-11-15T12:16:58;96012.53;;;8.67;100.00
29169;BME280;16219;42.864;23.360;2022-11-15T12:19:25;96012.31;;;8.64;100.00
29169;BME280;16219;42.864;23.360;2022-11-15T12:21:58;96005.09;;;8.69;100.00
29169;BME280;16219;42.864;23.360;2022-11-15T12:24:31;96009.28;;;8.57;100.00
29169;BME280;16219;42.864;23.360;2022-11-15T12:27:02;95997.69;;;8.58;100.00
29169;BME280;16219;42.864;23.360;2022-11-15T12:29:36;95995.75;;;8.49;100.00
29169;BME280;16219;42.864;23.360;2022-11-15T12:32:04;95991.81;;;8.33;100.00
29169;BME280;16219;42.864;23.360;2022-11-15T12:34:43;95983.44;;;8.31;100.00
29169;BME280;16219;42.864;23.360;2022-11-15T12:40:29;95982.88;;;8.34;100.00
29169;BME280;16219;42.864;23.360;2022-11-15T12:42:57;95981.38;;;8.28;100.00
29169;BME280;16219;42.864;23.360;2022-11-15T12:45:28;95975.06;;;8.29;100.00
29169;BME280;16219;42.864;23.360;2022-11-15T12:50:54;95971.94;;;8.27;100.00
29169;BME280;16219;42.864;23.360;2022-11-15T12:53:27;95963.84;;;8.23;100.00
29169;BME280;16219;42.864;23.360;2022-11-15T12:56:20;95962.41;;;8.31;100.00
29169;BME280;16219;42.864;23.360;2022-11-15T12:58:51;95962.41;;;8.31;100.00
29169;BME280;16219;42.864;23.360;2022-11-15T13:04:23;95964.94;;;8.36;100.00
29169;BME280;16219;42.864;23.360;2022-11-15T13:06:53;95963.03;;;8.42;100.00
29169;BME280;16219;42.864;23.360;2022-11-15T13:12:53;95946.66;;;8.45;100.00
29169;BME280;16219;42.864;23.360;2022-11-15T13:15:54;95944.66;;;8.42;100.00
29169;BME280;16219;42.864;23.360;2022-11-15T13:18:31;95936.97;;;8.45;100.00
29169;BME280;16219;42.864;23.360;2022-11-15T13:21:00;95932.47;;;8.46;100.00
29169;BME280;16219;42.864;23.360;2022-11-15T13:23:27;95932.75;;;8.44;100.00
29169;BME280;16219;42.864;23.360;2022-11-15T13:26:10;95924.59;;;8.46;100.00
29169;BME280;16219;42.864;23.360;2022-11-15T13:28:41;95930.88;;;8.45;100.00
29169;BME280;16219;42.864;23.360;2022-11-15T13:31:29;95924.06;;;8.30;100.00
29169;BME280;16219;42.864;23.360;2022-11-15T13:34:00;95917.31;;;8.24;100.00
29169;BME280;16219;42.864;23.360;2022-11-15T13:36:29;95919.09;;;8.29;100.00
29169;BME280;16219;42.864;23.360;2022-11-15T13:39:01;95914.31;;;8.17;100.00
29169;BME280;16219;42.864;23.360;2022-11-15T13:41:30;95919.56;;;8.31;100.00
29169;BME280;16219;42.864;23.360;2022-11-15T13:44:00;95915.66;;;8.28;100.00
29169;BME280;16219;42.864;23.360;2022-11-15T13:46:29;95921.03;;;8.23;100.00
29169;BME280;16219;42.864;23.360;2022-11-15T13:48:57;95921.63;;;8.20;100.00
29169;BME280;16219;42.864;23.360;2022-11-15T13:51:31;95921.03;;;8.23;100.00
29169;BME280;16219;42.864;23.360;2022-11-15T13:54:03;95923.66;;;8.23;100.00
29169;BME280;16219;42.864;23.360;2022-11-15T13:56:35;95922.88;;;8.22;100.00
29169;BME280;16219;42.864;23.360;2022-11-15T13:59:10;95911.78;;;8.12;100.00
29169;BME280;16219;42.864;23.360;2022-11-15T14:01:41;95923.53;;;8.00;100.00
29169;BME280;16219;42.864;23.360;2022-11-15T14:04:13;95919.38;;;7.99;100.00
29169;BME280;16219;42.864;23.360;2022-11-15T14:06:45;95925.75;;;7.93;100.00
29169;BME280;16219;42.864;23.360;2022-11-15T14:09:38;95921.69;;;7.87;100.00
29169;BME280;16219;42.864;23.360;2022-11-15T14:12:27;95914.38;;;7.84;100.00
29169;BME280;16219;42.864;23.360;2022-11-15T14:14:57;95911.25;;;7.82;100.00
29169;BME280;16219;42.864;23.360;2022-11-15T14:17:36;95912.31;;;7.81;100.00
29169;BME280;16219;42.864;23.360;2022-11-15T14:20:31;95910.53;;;7.63;100.00
29169;BME280;16219;42.864;23.360;2022-11-15T14:23:00;95912.56;;;7.52;100.00
29169;BME280;16219;42.864;23.360;2022-11-15T14:25:28;95906.97;;;7.40;100.00
29169;BME280;16219;42.864;23.360;2022-11-15T14:28:28;95906.13;;;7.25;100.00
29169;BME280;16219;42.864;23.360;2022-11-15T14:30:59;95904.66;;;7.19;100.00
29169;BME280;16219;42.864;23.360;2022-11-15T14:33:28;95907.56;;;7.18;100.00
29169;BME280;16219;42.864;23.360;2022-11-15T14:35:56;95899.03;;;7.26;100.00